sensor_id;sensor_type;location;lat;lon;timestamp;P1;durP1;ratioP1;P2;durP2;ratioP2
21213;SDS011;10764;50.850;2.904;2022-09-28T00:01:20;1241.70;;;999.90;;
21213;SDS011;10764;50.850;2.904;2022-09-28T00:03:49;1243.88;;;999.90;;
21213;SDS011;10764;50.850;2.904;2022-09-28T00:06:18;1245.95;;;999.90;;
21213;SDS011;10764;50.850;2.904;2022-09-28T00:08:46;1247.00;;;999.90;;
21213;SDS011;10764;50.850;2.904;2022-09-28T00:11:16;1245.88;;;999.90;;
21213;SDS011;10764;50.850;2.904;2022-09-28T00:13:44;1247.18;;;999.90;;
21213;SDS011;10764;50.850;2.904;2022-09-28T00:16:15;1245.27;;;999.90;;
21213;SDS011;10764;50.850;2.904;2022-09-28T00:18:44;1245.10;;;999.90;;
21213;SDS011;10764;50.850;2.904;2022-09-28T00:21:14;1251.30;;;999.90;;
21213;SDS011;10764;50.850;2.904;2022-09-28T00:23:44;1250.30;;;999.90;;
21213;SDS011;10764;50.850;2.904;2022-09-28T00:26:31;1247.50;;;999.90;;
21213;SDS011;10764;50.850;2.904;2022-09-28T00:29:02;1249.97;;;999.90;;
21213;SDS011;10764;50.850;2.904;2022-09-28T00:31:31;1250.93;;;999.90;;
21213;SDS011;10764;50.850;2.904;2022-09-28T00:34:00;1246.40;;;999.90;;
21213;SDS011;10764;50.850;2.904;2022-09-28T00:36:28;1247.70;;;999.90;;
21213;SDS011;10764;50.850;2.904;2022-09-28T00:38:59;1248.70;;;999.90;;
21213;SDS011;10764;50.850;2.904;2022-09-28T00:41:30;1249.90;;;999.90;;
21213;SDS011;10764;50.850;2.904;2022-09-28T00:44:59;1248.75;;;999.90;;
21213;SDS011;10764;50.850;2.904;2022-09-28T00:47:16;1250.43;;;999.90;;
21213;SDS011;10764;50.850;2.904;2022-09-28T00:49:53;1249.68;;;999.90;;
21213;SDS011;10764;50.850;2.904;2022-09-28T00:52:30;1246.93;;;999.90;;
21213;SDS011;10764;50.850;2.904;2022-09-28T00:55:01;1247.88;;;999.90;;
21213;SDS011;10764;50.850;2.904;2022-09-28T00:57:31;1250.32;;;999.90;;
21213;SDS011;10764;50.850;2.904;2022-09-28T00:59:59;1248.10;;;999.90;;
21213;SDS011;10764;50.850;2.904;2022-09-28T01:02:29;1247.47;;;999.90;;
21213;SDS011;10764;50.850;2.904;2022-09-28T01:04:57;1242.50;;;999.90;;
21213;SDS011;10764;50.850;2.904;2022-09-28T01:07:29;1244.50;;;999.90;;
21213;SDS011;10764;50.850;2.904;2022-09-28T01:09:59;1248.45;;;999.90;;
21213;SDS011;10764;50.850;2.904;2022-09-28T01:12:29;1250.43;;;999.90;;
21213;SDS011;10764;50.850;2.904;2022-09-28T01:15:01;1248.22;;;999.90;;
21213;SDS011;10764;50.850;2.904;2022-09-28T01:28:07;1246.00;;;999.90;;
21213;SDS011;10764;50.850;2.904;2022-09-28T01:30:40;1248.25;;;999.90;;
21213;SDS011;10764;50.850;2.904;2022-09-28T01:33:11;1249.80;;;999.90;;
21213;SDS011;10764;50.850;2.904;2022-09-28T01:35:43;1244.78;;;999.90;;
21213;SDS011;10764;50.850;2.904;2022-09-28T01:38:18;1244.45;;;999.90;;
21213;SDS011;10764;50.850;2.904;2022-09-28T01:40:47;1244.43;;;999.90;;
21213;SDS011;10764;50.850;2.904;2022-09-28T01:43:18;1244.13;;;999.90;;
21213;SDS011;10764;50.850;2.904;2022-09-28T01:45:53;1249.78;;;999.90;;
21213;SDS011;10764;50.850;2.904;2022-09-28T01:51:01;1250.10;;;999.90;;
21213;SDS011;10764;50.850;2.904;2022-09-28T01:53:34;1248.22;;;999.90;;
21213;SDS011;10764;50.850;2.904;2022-09-28T01:56:10;1242.00;;;999.90;;
21213;SDS011;10764;50.850;2.904;2022-09-28T01:58:45;1250.15;;;999.90;;
21213;SDS011;10764;50.850;2.904;2022-09-28T02:01:20;1247.00;;;999.90;;
21213;SDS011;10764;50.850;2.904;2022-09-28T02:03:57;1243.80;;;999.90;;
21213;SDS011;10764;50.850;2.904;2022-09-28T02:06:36;1243.85;;;999.90;;
21213;SDS011;10764;50.850;2.904;2022-09-28T02:09:09;1245.93;;;999.90;;
21213;SDS011;10764;50.850;2.904;2022-09-28T02:11:42;1247.18;;;999.90;;
21213;SDS011;10764;50.850;2.904;2022-09-28T02:14:12;1247.43;;;999.90;;
21213;SDS011;10764;50.850;2.904;2022-09-28T02:16:44;1240.10;;;999.90;;
21213;SDS011;10764;50.850;2.904;2022-09-28T02:19:17;1245.05;;;999.90;;
21213;SDS011;10764;50.850;2.904;2022-09-28T02:21:54;1245.32;;;999.90;;
21213;SDS011;10764;50.850;2.904;2022-09-28T02:24:29;1248.15;;;999.90;;
21213;SDS011;10764;50.850;2.904;2022-09-28T02:29:55;1248.35;;;999.90;;
21213;SDS011;10764;50.850;2.904;2022-09-28T02:32:26;1243.85;;;999.90;;
21213;SDS011;10764;50.850;2.904;2022-09-28T02:34:54;1247.47;;;999.90;;
21213;SDS011;10764;50.850;2.904;2022-09-28T02:37:22;1244.90;;;999.90;;
21213;SDS011;10764;50.850;2.904;2022-09-28T02:39:51;1246.28;;;999.90;;
21213;SDS011;10764;50.850;2.904;2022-09-28T02:42:28;1246.90;;;999.90;;
21213;SDS011;10764;50.850;2.904;2022-09-28T02:48:00;1248.88;;;999.90;;
21213;SDS011;10764;50.850;2.904;2022-09-28T02:58:55;1248.57;;;999.90;;
21213;SDS011;10764;50.850;2.904;2022-09-28T03:04:25;1246.55;;;999.90;;
21213;SDS011;10764;50.850;2.904;2022-09-28T03:09:30;1246.55;;;999.90;;
21213;SDS011;10764;50.850;2.904;2022-09-28T03:11:59;1241.72;;;999.90;;
21213;SDS011;10764;50.850;2.904;2022-09-28T03:14:30;1240.40;;;999.90;;
21213;SDS011;10764;50.850;2.904;2022-09-28T03:16:59;1246.80;;;999.90;;
21213;SDS011;10764;50.850;2.904;2022-09-28T03:19:29;1245.45;;;999.90;;
21213;SDS011;10764;50.850;2.904;2022-09-28T03:21:59;1245.72;;;999.90;;
21213;SDS011;10764;50.850;2.904;2022-09-28T03:24:29;1246.72;;;999.90;;
21213;SDS011;10764;50.850;2.904;2022-09-28T03:26:57;1247.10;;;999.90;;
21213;SDS011;10764;50.850;2.904;2022-09-28T03:29:24;1246.78;;;999.90;;
21213;SDS011;10764;50.850;2.904;2022-09-28T03:31:59;1245.13;;;999.90;;
21213;SDS011;10764;50.850;2.904;2022-09-28T03:34:28;1243.85;;;999.90;;
21213;SDS011;10764;50.850;2.904;2022-09-28T03:36:56;1244.65;;;999.90;;
21213;SDS011;10764;50.850;2.904;2022-09-28T03:39:25;1244.97;;;999.90;;
21213;SDS011;10764;50.850;2.904;2022-09-28T03:41:53;1241.97;;;999.90;;
21213;SDS011;10764;50.850;2.904;2022-09-28T03:44:20;1243.23;;;999.90;;
21213;SDS011;10764;50.850;2.904;2022-09-28T03:46:48;1246.85;;;999.90;;
21213;SDS011;10764;50.850;2.904;2022-09-28T03:49:17;1243.70;;;999.90;;
21213;SDS011;10764;50.850;2.904;2022-09-28T03:51:44;1246.20;;;999.90;;
21213;SDS011;10764;50.850;2.904;2022-09-28T03:54:13;1245.37;;;999.90;;
21213;SDS011;10764;50.850;2.904;2022-09-28T03:56:43;1246.03;;;999.90;;
21213;SDS011;10764;50.850;2.904;2022-09-28T03:59:11;1246.60;;;999.90;;
21213;SDS011;10764;50.850;2.904;2022-09-28T04:01:40;1249.07;;;999.90;;
21213;SDS011;10764;50.850;2.904;2022-09-28T04:04:12;1246.43;;;999.90;;
21213;SDS011;10764;50.850;2.904;2022-09-28T04:09:10;1245.90;;;999.90;;
21213;SDS011;10764;50.850;2.904;2022-09-28T04:11:39;1249.43;;;999.90;;
21213;SDS011;10764;50.850;2.904;2022-09-28T04:14:30;1253.45;;;999.90;;
21213;SDS011;10764;50.850;2.904;2022-09-28T04:17:00;1250.35;;;999.90;;
21213;SDS011;10764;50.850;2.904;2022-09-28T04:19:29;1251.20;;;999.90;;
21213;SDS011;10764;50.850;2.904;2022-09-28T04:22:16;1249.72;;;999.90;;
21213;SDS011;10764;50.850;2.904;2022-09-28T04:24:44;1253.35;;;999.90;;
21213;SDS011;10764;50.850;2.904;2022-09-28T04:27:11;1253.65;;;999.90;;
21213;SDS011;10764;50.850;2.904;2022-09-28T04:30:01;1252.40;;;999.90;;
21213;SDS011;10764;50.850;2.904;2022-09-28T04:32:31;1251.05;;;999.90;;
21213;SDS011;10764;50.850;2.904;2022-09-28T04:35:00;1249.20;;;999.90;;
21213;SDS011;10764;50.850;2.904;2022-09-28T04:40:01;1256.57;;;999.90;;
21213;SDS011;10764;50.850;2.904;2022-09-28T04:42:31;1246.40;;;999.90;;
21213;SDS011;10764;50.850;2.904;2022-09-28T04:44:59;1248.50;;;999.90;;
21213;SDS011;10764;50.850;2.904;2022-09-28T04:47:30;1248.13;;;999.90;;
21213;SDS011;10764;50.850;2.904;2022-09-28T04:50:29;1246.95;;;999.90;;
21213;SDS011;10764;50.850;2.904;2022-09-28T04:53:15;1249.93;;;999.90;;
21213;SDS011;10764;50.850;2.904;2022-09-28T04:58:14;1244.95;;;999.90;;
21213;SDS011;10764;50.850;2.904;2022-09-28T05:00:43;1239.35;;;999.90;;
21213;SDS011;10764;50.850;2.904;2022-09-28T05:03:21;1240.38;;;999.90;;
21213;SDS011;10764;50.850;2.904;2022-09-28T05:06:02;1240.13;;;999.90;;
21213;SDS011;10764;50.850;2.904;2022-09-28T05:08:43;1244.28;;;999.90;;
21213;SDS011;10764;50.850;2.904;2022-09-28T05:11:14;1242.03;;;999.90;;
21213;SDS011;10764;50.850;2.904;2022-09-28T05:13:44;1241.38;;;999.90;;
21213;SDS011;10764;50.850;2.904;2022-09-28T05:16:15;1243.40;;;999.90;;
21213;SDS011;10764;50.850;2.904;2022-09-28T05:19:02;1243.93;;;999.90;;
21213;SDS011;10764;50.850;2.904;2022-09-28T05:21:32;1241.90;;;999.90;;
21213;SDS011;10764;50.850;2.904;2022-09-28T05:24:00;1241.15;;;999.90;;
21213;SDS011;10764;50.850;2.904;2022-09-28T05:26:36;1248.97;;;999.90;;
21213;SDS011;10764;50.850;2.904;2022-09-28T05:29:06;1243.38;;;999.90;;
21213;SDS011;10764;50.850;2.904;2022-09-28T05:31:47;1247.38;;;999.90;;
21213;SDS011;10764;50.850;2.904;2022-09-28T05:34:32;1244.47;;;999.90;;
21213;SDS011;10764;50.850;2.904;2022-09-28T05:37:00;1242.90;;;999.90;;
21213;SDS011;10764;50.850;2.904;2022-09-28T05:39:30;1245.07;;;999.90;;
21213;SDS011;10764;50.850;2.904;2022-09-28T05:41:57;1238.88;;;999.90;;
21213;SDS011;10764;50.850;2.904;2022-09-28T05:44:24;1242.33;;;999.90;;
21213;SDS011;10764;50.850;2.904;2022-09-28T05:46:54;1243.90;;;999.90;;
21213;SDS011;10764;50.850;2.904;2022-09-28T05:49:23;1239.72;;;999.90;;
21213;SDS011;10764;50.850;2.904;2022-09-28T05:51:50;1240.50;;;999.90;;
21213;SDS011;10764;50.850;2.904;2022-09-28T05:54:21;1243.35;;;999.90;;
21213;SDS011;10764;50.850;2.904;2022-09-28T05:56:49;1243.68;;;999.90;;
21213;SDS011;10764;50.850;2.904;2022-09-28T05:59:16;1242.23;;;999.90;;
21213;SDS011;10764;50.850;2.904;2022-09-28T06:01:43;1241.50;;;999.90;;
21213;SDS011;10764;50.850;2.904;2022-09-28T06:04:11;1242.35;;;999.90;;
21213;SDS011;10764;50.850;2.904;2022-09-28T06:06:42;1243.05;;;999.90;;
21213;SDS011;10764;50.850;2.904;2022-09-28T06:09:12;1242.33;;;999.90;;
21213;SDS011;10764;50.850;2.904;2022-09-28T06:12:08;1246.33;;;999.90;;
21213;SDS011;10764;50.850;2.904;2022-09-28T06:14:42;1246.35;;;999.90;;
21213;SDS011;10764;50.850;2.904;2022-09-28T06:17:12;1248.18;;;999.90;;
21213;SDS011;10764;50.850;2.904;2022-09-28T06:19:41;1242.95;;;999.90;;
21213;SDS011;10764;50.850;2.904;2022-09-28T06:22:23;1241.03;;;999.90;;
21213;SDS011;10764;50.850;2.904;2022-09-28T06:24:58;1246.68;;;999.90;;
21213;SDS011;10764;50.850;2.904;2022-09-28T06:27:25;1242.60;;;999.90;;
21213;SDS011;10764;50.850;2.904;2022-09-28T06:29:53;1245.25;;;999.90;;
21213;SDS011;10764;50.850;2.904;2022-09-28T06:32:19;1239.15;;;999.90;;
21213;SDS011;10764;50.850;2.904;2022-09-28T06:34:48;1250.97;;;999.90;;
21213;SDS011;10764;50.850;2.904;2022-09-28T06:37:22;1241.10;;;999.90;;
21213;SDS011;10764;50.850;2.904;2022-09-28T06:39:51;1242.10;;;999.90;;
21213;SDS011;10764;50.850;2.904;2022-09-28T06:42:20;1244.75;;;999.90;;
21213;SDS011;10764;50.850;2.904;2022-09-28T06:45:07;1242.93;;;999.90;;
21213;SDS011;10764;50.850;2.904;2022-09-28T06:47:57;1246.97;;;999.90;;
21213;SDS011;10764;50.850;2.904;2022-09-28T06:50:41;1244.20;;;999.90;;
21213;SDS011;10764;50.850;2.904;2022-09-28T06:53:25;1244.00;;;999.90;;
21213;SDS011;10764;50.850;2.904;2022-09-28T06:56:00;1242.57;;;999.90;;
21213;SDS011;10764;50.850;2.904;2022-09-28T06:58:28;1251.95;;;999.90;;
21213;SDS011;10764;50.850;2.904;2022-09-28T07:00:57;1236.45;;;999.90;;
21213;SDS011;10764;50.850;2.904;2022-09-28T07:03:28;1243.40;;;999.90;;
21213;SDS011;10764;50.850;2.904;2022-09-28T07:05:55;1267.93;;;999.90;;
21213;SDS011;10764;50.850;2.904;2022-09-28T07:08:42;1242.50;;;999.90;;
21213;SDS011;10764;50.850;2.904;2022-09-28T07:11:43;1242.35;;;999.90;;
21213;SDS011;10764;50.850;2.904;2022-09-28T07:14:23;1244.25;;;999.90;;
21213;SDS011;10764;50.850;2.904;2022-09-28T07:17:10;1242.27;;;999.90;;
21213;SDS011;10764;50.850;2.904;2022-09-28T07:19:41;1245.35;;;999.90;;
21213;SDS011;10764;50.850;2.904;2022-09-28T07:22:08;1240.57;;;999.90;;
21213;SDS011;10764;50.850;2.904;2022-09-28T07:24:45;1240.55;;;999.90;;
21213;SDS011;10764;50.850;2.904;2022-09-28T07:27:31;1241.90;;;999.90;;
21213;SDS011;10764;50.850;2.904;2022-09-28T07:30:14;1238.05;;;999.90;;
21213;SDS011;10764;50.850;2.904;2022-09-28T07:33:00;1245.47;;;999.90;;
21213;SDS011;10764;50.850;2.904;2022-09-28T07:35:37;1245.00;;;999.90;;
21213;SDS011;10764;50.850;2.904;2022-09-28T07:38:09;1245.30;;;999.90;;
21213;SDS011;10764;50.850;2.904;2022-09-28T07:40:36;1261.13;;;999.90;;
21213;SDS011;10764;50.850;2.904;2022-09-28T07:43:22;1247.03;;;999.90;;
21213;SDS011;10764;50.850;2.904;2022-09-28T07:45:52;1244.15;;;999.90;;
21213;SDS011;10764;50.850;2.904;2022-09-28T07:48:20;1247.22;;;999.90;;
21213;SDS011;10764;50.850;2.904;2022-09-28T07:51:20;1247.93;;;999.90;;
21213;SDS011;10764;50.850;2.904;2022-09-28T07:54:04;1253.73;;;999.90;;
21213;SDS011;10764;50.850;2.904;2022-09-28T07:56:52;1255.95;;;999.90;;
21213;SDS011;10764;50.850;2.904;2022-09-28T07:59:46;1250.60;;;999.90;;
21213;SDS011;10764;50.850;2.904;2022-09-28T08:02:34;1233.77;;;999.90;;
21213;SDS011;10764;50.850;2.904;2022-09-28T08:05:01;1235.68;;;999.90;;
21213;SDS011;10764;50.850;2.904;2022-09-28T08:07:28;1236.82;;;999.90;;
21213;SDS011;10764;50.850;2.904;2022-09-28T08:10:02;1228.20;;;999.90;;
21213;SDS011;10764;50.850;2.904;2022-09-28T08:12:55;1255.18;;;999.90;;
21213;SDS011;10764;50.850;2.904;2022-09-28T08:15:41;1279.78;;;999.90;;
21213;SDS011;10764;50.850;2.904;2022-09-28T08:18:20;1269.90;;;999.90;;
21213;SDS011;10764;50.850;2.904;2022-09-28T08:20:50;1264.28;;;999.90;;
21213;SDS011;10764;50.850;2.904;2022-09-28T08:23:37;1255.35;;;999.90;;
21213;SDS011;10764;50.850;2.904;2022-09-28T08:26:05;1250.78;;;999.90;;
21213;SDS011;10764;50.850;2.904;2022-09-28T08:28:35;1246.43;;;999.90;;
21213;SDS011;10764;50.850;2.904;2022-09-28T08:31:20;1239.45;;;999.90;;
21213;SDS011;10764;50.850;2.904;2022-09-28T08:34:11;1238.97;;;999.90;;
21213;SDS011;10764;50.850;2.904;2022-09-28T08:36:57;1247.15;;;999.90;;
21213;SDS011;10764;50.850;2.904;2022-09-28T08:39:43;1262.22;;;999.90;;
21213;SDS011;10764;50.850;2.904;2022-09-28T08:42:32;1251.90;;;999.90;;
21213;SDS011;10764;50.850;2.904;2022-09-28T08:45:29;1254.25;;;999.90;;
21213;SDS011;10764;50.850;2.904;2022-09-28T08:48:34;1243.00;;;999.90;;
21213;SDS011;10764;50.850;2.904;2022-09-28T08:51:50;1246.13;;;999.90;;
21213;SDS011;10764;50.850;2.904;2022-09-28T08:57:37;1225.03;;;999.90;;
21213;SDS011;10764;50.850;2.904;2022-09-28T09:00:09;1276.78;;;999.90;;
21213;SDS011;10764;50.850;2.904;2022-09-28T09:02:41;1282.40;;;999.90;;
21213;SDS011;10764;50.850;2.904;2022-09-28T09:05:15;1270.75;;;999.90;;
21213;SDS011;10764;50.850;2.904;2022-09-28T09:10:46;1239.50;;;999.90;;
21213;SDS011;10764;50.850;2.904;2022-09-28T09:13:33;1228.20;;;999.90;;
21213;SDS011;10764;50.850;2.904;2022-09-28T09:19:02;1243.07;;;999.90;;
21213;SDS011;10764;50.850;2.904;2022-09-28T09:24:09;1242.38;;;999.90;;
21213;SDS011;10764;50.850;2.904;2022-09-28T09:26:39;1247.93;;;999.90;;
21213;SDS011;10764;50.850;2.904;2022-09-28T09:49:03;1243.78;;;999.90;;
21213;SDS011;10764;50.850;2.904;2022-09-28T09:54:11;1244.75;;;999.90;;
21213;SDS011;10764;50.850;2.904;2022-09-28T09:57:10;1253.25;;;999.90;;
21213;SDS011;10764;50.850;2.904;2022-09-28T09:59:46;1246.07;;;999.90;;
21213;SDS011;10764;50.850;2.904;2022-09-28T10:02:39;1253.07;;;999.90;;
21213;SDS011;10764;50.850;2.904;2022-09-28T10:05:20;1253.38;;;999.90;;
21213;SDS011;10764;50.850;2.904;2022-09-28T10:08:11;1260.45;;;999.90;;
21213;SDS011;10764;50.850;2.904;2022-09-28T10:13:16;1248.97;;;999.90;;
21213;SDS011;10764;50.850;2.904;2022-09-28T10:15:44;1254.95;;;999.90;;
21213;SDS011;10764;50.850;2.904;2022-09-28T10:18:34;1269.15;;;999.90;;
21213;SDS011;10764;50.850;2.904;2022-09-28T10:21:20;1271.57;;;999.90;;
21213;SDS011;10764;50.850;2.904;2022-09-28T10:23:58;1267.35;;;999.90;;
21213;SDS011;10764;50.850;2.904;2022-09-28T10:26:31;1263.65;;;999.90;;
21213;SDS011;10764;50.850;2.904;2022-09-28T10:29:25;1264.43;;;999.90;;
21213;SDS011;10764;50.850;2.904;2022-09-28T10:31:55;1266.05;;;999.90;;
21213;SDS011;10764;50.850;2.904;2022-09-28T10:34:30;1266.90;;;999.90;;
21213;SDS011;10764;50.850;2.904;2022-09-28T10:37:05;1280.65;;;999.90;;
21213;SDS011;10764;50.850;2.904;2022-09-28T10:40:04;1273.65;;;999.90;;
21213;SDS011;10764;50.850;2.904;2022-09-28T10:43:23;1271.30;;;999.90;;
21213;SDS011;10764;50.850;2.904;2022-09-28T10:48:48;1272.90;;;999.90;;
21213;SDS011;10764;50.850;2.904;2022-09-28T10:51:18;1273.70;;;999.90;;
21213;SDS011;10764;50.850;2.904;2022-09-28T10:53:57;1269.70;;;999.90;;
21213;SDS011;10764;50.850;2.904;2022-09-28T10:56:49;1271.75;;;999.90;;
21213;SDS011;10764;50.850;2.904;2022-09-28T10:59:35;1267.93;;;999.90;;
21213;SDS011;10764;50.850;2.904;2022-09-28T11:02:35;1269.68;;;999.90;;
21213;SDS011;10764;50.850;2.904;2022-09-28T11:05:17;1267.35;;;999.90;;
21213;SDS011;10764;50.850;2.904;2022-09-28T11:07:46;1270.28;;;999.90;;
21213;SDS011;10764;50.850;2.904;2022-09-28T11:10:22;1268.80;;;999.90;;
21213;SDS011;10764;50.850;2.904;2022-09-28T11:12:55;1270.78;;;999.90;;
21213;SDS011;10764;50.850;2.904;2022-09-28T11:15:26;1264.82;;;999.90;;
21213;SDS011;10764;50.850;2.904;2022-09-28T11:18:09;1274.40;;;999.90;;
21213;SDS011;10764;50.850;2.904;2022-09-28T11:20:43;1265.32;;;999.90;;
21213;SDS011;10764;50.850;2.904;2022-09-28T11:25:54;1265.30;;;999.90;;
21213;SDS011;10764;50.850;2.904;2022-09-28T11:28:28;1264.45;;;999.90;;
21213;SDS011;10764;50.850;2.904;2022-09-28T11:31:00;1269.88;;;999.90;;
21213;SDS011;10764;50.850;2.904;2022-09-28T11:36:21;1267.28;;;999.90;;
21213;SDS011;10764;50.850;2.904;2022-09-28T11:50:01;1263.33;;;999.90;;
21213;SDS011;10764;50.850;2.904;2022-09-28T11:55:31;1261.73;;;999.90;;
21213;SDS011;10764;50.850;2.904;2022-09-28T11:58:09;1260.63;;;999.90;;
21213;SDS011;10764;50.850;2.904;2022-09-28T12:00:45;1261.63;;;999.90;;
21213;SDS011;10764;50.850;2.904;2022-09-28T12:03:24;1256.97;;;999.90;;
21213;SDS011;10764;50.850;2.904;2022-09-28T12:05:56;1261.63;;;999.90;;
21213;SDS011;10764;50.850;2.904;2022-09-28T12:08:27;1264.18;;;999.90;;
21213;SDS011;10764;50.850;2.904;2022-09-28T12:11:07;1261.88;;;999.90;;
21213;SDS011;10764;50.850;2.904;2022-09-28T12:14:05;1258.07;;;999.90;;
21213;SDS011;10764;50.850;2.904;2022-09-28T12:21:54;1255.20;;;999.90;;
21213;SDS011;10764;50.850;2.904;2022-09-28T12:24:30;1262.70;;;999.90;;
21213;SDS011;10764;50.850;2.904;2022-09-28T12:27:01;1260.57;;;999.90;;
21213;SDS011;10764;50.850;2.904;2022-09-28T12:29:32;1261.30;;;999.90;;
21213;SDS011;10764;50.850;2.904;2022-09-28T12:35:09;1261.28;;;999.90;;
21213;SDS011;10764;50.850;2.904;2022-09-28T12:40:31;1264.70;;;999.90;;
21213;SDS011;10764;50.850;2.904;2022-09-28T12:43:05;1276.90;;;999.90;;
21213;SDS011;10764;50.850;2.904;2022-09-28T12:45:42;1281.28;;;999.90;;
21213;SDS011;10764;50.850;2.904;2022-09-28T12:51:26;1257.60;;;999.90;;
21213;SDS011;10764;50.850;2.904;2022-09-28T12:59:29;1261.55;;;999.90;;
21213;SDS011;10764;50.850;2.904;2022-09-28T13:02:10;1265.55;;;999.90;;
21213;SDS011;10764;50.850;2.904;2022-09-28T13:04:57;1265.95;;;999.90;;
21213;SDS011;10764;50.850;2.904;2022-09-28T13:12:31;1263.53;;;999.90;;
21213;SDS011;10764;50.850;2.904;2022-09-28T13:15:11;1264.30;;;999.90;;
21213;SDS011;10764;50.850;2.904;2022-09-28T13:17:48;1265.72;;;999.90;;
21213;SDS011;10764;50.850;2.904;2022-09-28T13:25:37;1262.10;;;999.90;;
21213;SDS011;10764;50.850;2.904;2022-09-28T13:28:06;1259.30;;;999.90;;
21213;SDS011;10764;50.850;2.904;2022-09-28T13:30:33;1265.93;;;999.90;;
21213;SDS011;10764;50.850;2.904;2022-09-28T13:33:02;1263.20;;;999.90;;
21213;SDS011;10764;50.850;2.904;2022-09-28T13:35:31;1259.57;;;999.90;;
21213;SDS011;10764;50.850;2.904;2022-09-28T13:43:44;1259.32;;;999.90;;
21213;SDS011;10764;50.850;2.904;2022-09-28T13:51:30;1267.75;;;999.90;;
21213;SDS011;10764;50.850;2.904;2022-09-28T13:54:10;1260.13;;;999.90;;
21213;SDS011;10764;50.850;2.904;2022-09-28T13:59:24;1262.55;;;999.90;;
21213;SDS011;10764;50.850;2.904;2022-09-28T14:04:55;1267.15;;;999.90;;
21213;SDS011;10764;50.850;2.904;2022-09-28T14:10:14;1260.35;;;999.90;;
21213;SDS011;10764;50.850;2.904;2022-09-28T14:20:26;1262.93;;;999.90;;
21213;SDS011;10764;50.850;2.904;2022-09-28T14:25:27;1268.33;;;999.90;;
21213;SDS011;10764;50.850;2.904;2022-09-28T14:30:33;1266.70;;;999.90;;
21213;SDS011;10764;50.850;2.904;2022-09-28T14:38:17;1259.50;;;999.90;;
21213;SDS011;10764;50.850;2.904;2022-09-28T14:48:52;1257.68;;;999.90;;
21213;SDS011;10764;50.850;2.904;2022-09-28T14:53:57;1262.35;;;999.90;;
21213;SDS011;10764;50.850;2.904;2022-09-28T14:56:26;1261.20;;;999.90;;
21213;SDS011;10764;50.850;2.904;2022-09-28T14:58:58;1260.72;;;999.90;;
21213;SDS011;10764;50.850;2.904;2022-09-28T15:01:26;1263.40;;;999.90;;
21213;SDS011;10764;50.850;2.904;2022-09-28T15:03:53;1259.45;;;999.90;;
21213;SDS011;10764;50.850;2.904;2022-09-28T15:06:24;1259.88;;;999.90;;
21213;SDS011;10764;50.850;2.904;2022-09-28T15:08:52;1261.97;;;999.90;;
21213;SDS011;10764;50.850;2.904;2022-09-28T15:11:21;1260.65;;;999.90;;
21213;SDS011;10764;50.850;2.904;2022-09-28T15:13:50;1262.60;;;999.90;;
21213;SDS011;10764;50.850;2.904;2022-09-28T15:16:29;1263.60;;;999.90;;
21213;SDS011;10764;50.850;2.904;2022-09-28T15:19:01;1262.57;;;999.90;;
21213;SDS011;10764;50.850;2.904;2022-09-28T15:21:39;1270.00;;;999.90;;
21213;SDS011;10764;50.850;2.904;2022-09-28T15:26:52;1265.30;;;999.90;;
21213;SDS011;10764;50.850;2.904;2022-09-28T15:29:20;1265.38;;;999.90;;
21213;SDS011;10764;50.850;2.904;2022-09-28T15:31:48;1268.18;;;999.90;;
21213;SDS011;10764;50.850;2.904;2022-09-28T15:37:12;1269.63;;;999.90;;
21213;SDS011;10764;50.850;2.904;2022-09-28T15:39:40;1264.63;;;999.90;;
21213;SDS011;10764;50.850;2.904;2022-09-28T15:42:08;1267.45;;;999.90;;
21213;SDS011;10764;50.850;2.904;2022-09-28T15:44:36;1272.95;;;999.90;;
21213;SDS011;10764;50.850;2.904;2022-09-28T15:47:29;1269.38;;;999.90;;
21213;SDS011;10764;50.850;2.904;2022-09-28T15:49:58;1272.68;;;999.90;;
21213;SDS011;10764;50.850;2.904;2022-09-28T15:54:54;1267.00;;;999.90;;
21213;SDS011;10764;50.850;2.904;2022-09-28T15:57:37;1273.53;;;999.90;;
21213;SDS011;10764;50.850;2.904;2022-09-28T16:00:15;1271.13;;;999.90;;
21213;SDS011;10764;50.850;2.904;2022-09-28T16:05:30;1269.13;;;999.90;;
21213;SDS011;10764;50.850;2.904;2022-09-28T16:08:04;1270.70;;;999.90;;
21213;SDS011;10764;50.850;2.904;2022-09-28T16:10:32;1272.47;;;999.90;;
21213;SDS011;10764;50.850;2.904;2022-09-28T16:13:12;1272.57;;;999.90;;
21213;SDS011;10764;50.850;2.904;2022-09-28T16:15:40;1273.38;;;999.90;;
21213;SDS011;10764;50.850;2.904;2022-09-28T16:20:39;1274.85;;;999.90;;
21213;SDS011;10764;50.850;2.904;2022-09-28T16:23:08;1273.13;;;999.90;;
21213;SDS011;10764;50.850;2.904;2022-09-28T16:25:35;1273.88;;;999.90;;
21213;SDS011;10764;50.850;2.904;2022-09-28T16:28:04;1274.57;;;999.90;;
21213;SDS011;10764;50.850;2.904;2022-09-28T16:30:32;1275.68;;;999.90;;
21213;SDS011;10764;50.850;2.904;2022-09-28T16:33:00;1271.60;;;999.90;;
21213;SDS011;10764;50.850;2.904;2022-09-28T16:36:04;1270.45;;;999.90;;
21213;SDS011;10764;50.850;2.904;2022-09-28T16:38:27;1269.80;;;999.90;;
21213;SDS011;10764;50.850;2.904;2022-09-28T16:40:54;1274.80;;;999.90;;
21213;SDS011;10764;50.850;2.904;2022-09-28T16:43:24;1269.13;;;999.90;;
21213;SDS011;10764;50.850;2.904;2022-09-28T16:45:53;1266.95;;;999.90;;
21213;SDS011;10764;50.850;2.904;2022-09-28T16:48:25;1276.72;;;999.90;;
21213;SDS011;10764;50.850;2.904;2022-09-28T16:50:53;1270.97;;;999.90;;
21213;SDS011;10764;50.850;2.904;2022-09-28T16:53:20;1274.83;;;999.90;;
21213;SDS011;10764;50.850;2.904;2022-09-28T16:56:06;1272.30;;;999.90;;
21213;SDS011;10764;50.850;2.904;2022-09-28T16:58:33;1270.47;;;999.90;;
21213;SDS011;10764;50.850;2.904;2022-09-28T17:01:01;1268.63;;;999.90;;
21213;SDS011;10764;50.850;2.904;2022-09-28T17:03:28;1270.35;;;999.90;;
21213;SDS011;10764;50.850;2.904;2022-09-28T17:05:56;1267.78;;;999.90;;
21213;SDS011;10764;50.850;2.904;2022-09-28T17:08:23;1271.70;;;999.90;;
21213;SDS011;10764;50.850;2.904;2022-09-28T17:10:54;1272.03;;;999.90;;
21213;SDS011;10764;50.850;2.904;2022-09-28T17:13:44;1271.97;;;999.90;;
21213;SDS011;10764;50.850;2.904;2022-09-28T17:16:12;1270.83;;;999.90;;
21213;SDS011;10764;50.850;2.904;2022-09-28T17:18:40;1265.70;;;999.90;;
21213;SDS011;10764;50.850;2.904;2022-09-28T17:21:11;1268.07;;;999.90;;
21213;SDS011;10764;50.850;2.904;2022-09-28T17:23:41;1267.75;;;999.90;;
21213;SDS011;10764;50.850;2.904;2022-09-28T17:26:16;1265.00;;;999.90;;
21213;SDS011;10764;50.850;2.904;2022-09-28T17:28:58;1272.15;;;999.90;;
21213;SDS011;10764;50.850;2.904;2022-09-28T17:31:28;1271.55;;;999.90;;
21213;SDS011;10764;50.850;2.904;2022-09-28T17:33:55;1266.25;;;999.90;;
21213;SDS011;10764;50.850;2.904;2022-09-28T17:36:23;1263.15;;;999.90;;